createdAt,value
2022-08-09T00:00:04.545Z,102856.34
2022-08-09T00:02:34.132Z,102845.28
2022-08-09T00:06:15.244Z,102848.75
2022-08-09T00:07:48.618Z,102841.88
2022-08-09T00:10:21.174Z,102842.59
2022-08-09T00:12:51.681Z,102848.06
2022-08-09T00:15:26.722Z,102839.91
2022-08-09T00:18:11.196Z,102842.88
2022-08-09T00:20:42.503Z,102850.44
2022-08-09T00:23:55.160Z,102846.09
2022-08-09T00:26:07.023Z,102847.88
2022-08-09T00:28:35.185Z,102847.13
2022-08-09T00:31:09.129Z,102852.94
2022-08-09T00:33:53.980Z,102853.75
2022-08-09T00:36:22.323Z,102849.91
2022-08-09T00:38:53.987Z,102855.47
2022-08-09T00:44:16.858Z,102849.09
2022-08-09T00:44:25.746Z,102848.75
2022-08-09T00:47:04.564Z,102844.72
2022-08-09T00:49:36.516Z,102850.19
2022-08-09T00:52:05.496Z,102853.38
2022-08-09T00:54:36.484Z,102846.72
2022-08-09T00:57:09.026Z,102849.13
2022-08-09T00:59:46.883Z,102849.13
2022-08-09T01:02:21.843Z,102853.53
2022-08-09T01:04:56.307Z,102852.69
2022-08-09T01:07:37.618Z,102850.81
2022-08-09T01:10:28.931Z,102854.75
2022-08-09T01:12:57.049Z,102849.19
2022-08-09T01:15:27.876Z,102843.69
2022-08-09T01:18:14.378Z,102841.75
2022-08-09T01:20:50.233Z,102847.47
2022-08-09T01:24:02.425Z,102847.81
2022-08-09T01:26:59.240Z,102851.53
2022-08-09T01:29:41.053Z,102858.66
2022-08-09T01:32:31.187Z,102850.75
2022-08-09T01:35:38.810Z,102856.25
2022-08-09T01:38:10.695Z,102861.09
2022-08-09T01:40:52.703Z,102870.19
2022-08-09T01:43:50.846Z,102853.41
2022-08-09T01:46:26.811Z,102853.84
2022-08-09T01:48:56.884Z,102858.75
2022-08-09T01:51:26.217Z,102859.25
2022-08-09T01:53:57.927Z,102856.59
2022-08-09T01:56:27.007Z,102854.59
2022-08-09T01:58:56.704Z,102854.81
2022-08-09T02:01:58.604Z,102854.59
2022-08-09T02:04:14.758Z,102861.06
2022-08-09T02:07:01.982Z,102860.88
2022-08-09T02:09:42.061Z,102863.50
2022-08-09T02:12:13.463Z,102869.03
2022-08-09T02:14:47.950Z,102856.66
2022-08-09T02:17:59.947Z,102862.38
2022-08-09T02:20:08.578Z,102866.75
2022-08-09T02:22:52.506Z,102864.56
2022-08-09T02:25:23.985Z,102864.44
2022-08-09T02:28:03.825Z,102864.75
2022-08-09T02:30:35.676Z,102871.31
2022-08-09T02:33:03.280Z,102865.53
2022-08-09T02:35:46.350Z,102860.81
2022-08-09T02:38:29.646Z,102862.53
2022-08-09T02:41:01.982Z,102861.75
2022-08-09T02:43:42.493Z,102858.34
2022-08-09T02:46:19.464Z,102851.16
2022-08-09T02:48:47.713Z,102854.59
2022-08-09T02:51:22.038Z,102851.50
2022-08-09T02:54:00.891Z,102851.50
2022-08-09T02:56:30.391Z,102848.63
2022-08-09T02:58:57.533Z,102851.84
2022-08-09T03:01:29.381Z,102852.75
2022-08-09T03:04:19.158Z,102848.00
2022-08-09T03:06:48.876Z,102843.94
2022-08-09T03:09:17.683Z,102845.00
2022-08-09T03:12:06.598Z,102841.63
2022-08-09T03:14:32.134Z,102850.78
2022-08-09T03:17:01.545Z,102845.56
2022-08-09T03:19:58.370Z,102846.53
2022-08-09T03:22:25.154Z,102840.59
2022-08-09T03:25:06.371Z,102834.34
2022-08-09T03:27:52.662Z,102846.50
2022-08-09T03:30:29.903Z,102841.91
2022-08-09T03:33:05.637Z,102846.34
2022-08-09T03:36:11.087Z,102854.69
2022-08-09T03:38:28.945Z,102844.47
2022-08-09T03:40:58.256Z,102847.25
2022-08-09T03:43:25.095Z,102849.03
2022-08-09T03:46:04.116Z,102842.44
2022-08-09T03:48:51.815Z,102838.72
2022-08-09T03:51:44.435Z,102838.44
2022-08-09T03:54:10.728Z,102839.44
2022-08-09T03:56:41.310Z,102845.22
2022-08-09T03:59:21.185Z,102837.25
2022-08-09T04:01:56.831Z,102847.50
2022-08-09T04:04:32.636Z,102841.69
2022-08-09T04:07:05.491Z,102848.00
2022-08-09T04:09:48.111Z,102849.28
2022-08-09T04:12:33.623Z,102852.09
2022-08-09T04:15:01.841Z,102854.66
2022-08-09T04:17:29.827Z,102852.72
2022-08-09T04:19:56.789Z,102860.34
2022-08-09T04:22:23.685Z,102861.88
2022-08-09T04:24:50.577Z,102867.31
2022-08-09T04:27:21.894Z,102868.38
2022-08-09T04:29:49.853Z,102871.22
2022-08-09T04:32:31.326Z,102869.66
2022-08-09T04:35:01.461Z,102873.63
2022-08-09T04:37:45.392Z,102871.22
2022-08-09T04:40:19.263Z,102876.84
2022-08-09T04:42:55.624Z,102875.31
2022-08-09T04:45:23.685Z,102885.66
2022-08-09T04:48:00.219Z,102889.81
2022-08-09T04:50:35.027Z,102894.22
2022-08-09T04:53:11.540Z,102890.41
2022-08-09T04:55:57.795Z,102894.31
2022-08-09T04:58:31.698Z,102898.16
2022-08-09T05:01:00.197Z,102889.94
2022-08-09T05:03:40.682Z,102893.09
2022-08-09T05:06:09.676Z,102890.91
2022-08-09T05:08:38.235Z,102896.44
2022-08-09T05:11:07.650Z,102895.19
2022-08-09T05:13:38.464Z,102894.00
2022-08-09T05:16:06.805Z,102895.25
2022-08-09T05:18:42.208Z,102899.25
2022-08-09T05:21:24.345Z,102898.13
2022-08-09T05:23:59.736Z,102895.06
2022-08-09T05:26:37.007Z,102899.66
2022-08-09T05:29:21.854Z,102911.69
2022-08-09T05:31:56.879Z,102910.03
2022-08-09T05:34:31.030Z,102908.91
2022-08-09T05:37:05.979Z,102903.81
2022-08-09T05:39:36.223Z,102915.44
2022-08-09T05:42:10.230Z,102911.69
2022-08-09T05:44:44.691Z,102912.34
2022-08-09T05:47:14.270Z,102917.06
2022-08-09T05:50:26.786Z,102913.84
2022-08-09T05:52:27.689Z,102920.75
2022-08-09T05:54:58.239Z,102920.19
2022-08-09T05:57:55.424Z,102925.13
2022-08-09T06:00:19.935Z,102926.22
2022-08-09T06:02:47.013Z,102930.50
2022-08-09T06:05:13.713Z,102936.09
2022-08-09T06:07:40.307Z,102924.03
2022-08-09T06:10:15.904Z,102942.88
2022-08-09T06:12:44.658Z,102927.88
2022-08-09T06:15:17.512Z,102934.84
2022-08-09T06:17:44.011Z,102937.88
2022-08-09T06:20:13.361Z,102937.56
2022-08-09T06:22:45.613Z,102945.25
2022-08-09T06:25:12.482Z,102940.91
2022-08-09T06:27:51.833Z,102948.94
2022-08-09T06:30:18.921Z,102940.91
2022-08-09T06:33:13.539Z,102935.34
2022-08-09T06:35:56.572Z,102947.44
2022-08-09T06:38:19.755Z,102947.03
2022-08-09T06:40:58.690Z,102960.06
2022-08-09T06:43:26.925Z,102963.00
2022-08-09T06:46:07.567Z,102956.66
2022-08-09T06:48:42.818Z,102948.78
2022-08-09T06:51:11.082Z,102944.44
2022-08-09T06:53:38.918Z,102969.06
2022-08-09T06:56:09.248Z,102964.84
2022-08-09T07:00:46.479Z,102971.50
2022-08-09T07:01:24.294Z,102974.22
2022-08-09T07:03:56.721Z,102974.38
2022-08-09T07:06:28.028Z,102963.66
2022-08-09T07:08:56.482Z,102973.97
2022-08-09T07:11:25.871Z,102982.34
2022-08-09T07:14:04.762Z,102981.03
2022-08-09T07:16:41.446Z,102979.63
2022-08-09T07:19:15.645Z,102974.28
2022-08-09T07:21:55.789Z,102977.16
2022-08-09T07:24:39.884Z,102982.78
2022-08-09T07:27:26.763Z,102978.38
2022-08-09T07:29:58.683Z,102971.56
2022-08-09T07:32:33.528Z,102970.25
2022-08-09T07:35:08.022Z,102964.56
2022-08-09T07:37:43.520Z,102969.94
2022-08-09T07:40:17.032Z,102969.84
2022-08-09T07:42:56.940Z,102978.19
2022-08-09T07:45:39.851Z,102973.78
2022-08-09T07:48:28.365Z,102966.22
2022-08-09T07:51:09.581Z,102965.16
2022-08-09T07:54:04.474Z,102952.44
2022-08-09T07:56:31.100Z,102958.50
2022-08-09T07:58:59.401Z,102958.47
2022-08-09T08:01:33.090Z,102950.91
2022-08-09T08:04:02.480Z,102949.88
2022-08-09T08:06:32.141Z,102957.34
2022-08-09T08:09:04.444Z,102952.59
2022-08-09T08:12:27.292Z,102953.69
2022-08-09T08:14:18.548Z,102949.88
2022-08-09T08:17:00.477Z,102952.22
2022-08-09T08:19:31.818Z,102954.34
2022-08-09T08:21:58.461Z,102952.94
2022-08-09T08:24:34.261Z,102952.44
2022-08-09T08:27:17.194Z,102953.53
2022-08-09T08:29:49.951Z,102959.16
2022-08-09T08:32:24.263Z,102960.09
2022-08-09T08:34:58.793Z,102961.28
2022-08-09T08:37:41.956Z,102971.16
2022-08-09T08:40:14.362Z,102964.50
2022-08-09T08:42:47.424Z,102968.03
2022-08-09T08:45:16.661Z,102964.34
2022-08-09T08:47:46.129Z,102976.72
2022-08-09T08:50:18.315Z,102976.38
2022-08-09T08:52:58.103Z,102967.22
2022-08-09T08:55:26.837Z,102959.09
2022-08-09T08:57:57.661Z,102961.09
2022-08-09T09:00:30.396Z,102964.78
2022-08-09T09:03:11.694Z,102962.25
2022-08-09T09:05:59.593Z,102968.09
2022-08-09T09:08:40.373Z,102976.63
2022-08-09T09:11:13.778Z,102971.22
2022-08-09T09:13:55.089Z,102968.31
2022-08-09T09:16:32.438Z,102963.09
2022-08-09T09:22:12.499Z,102960.09
2022-08-09T09:24:43.292Z,102967.63
2022-08-09T09:28:05.699Z,102956.06
2022-08-09T09:30:28.867Z,102953.25
2022-08-09T09:33:15.576Z,102963.22
2022-08-09T09:36:20.841Z,102961.25
2022-08-09T09:38:57.151Z,102953.25
2022-08-09T09:41:24.049Z,102963.75
2022-08-09T09:44:11.548Z,102958.16
2022-08-09T09:46:45.654Z,102958.06
2022-08-09T09:49:49.743Z,102957.53
2022-08-09T09:52:33.412Z,102962.81
2022-08-09T09:55:16.356Z,102966.63
2022-08-09T09:58:16.498Z,102967.06
2022-08-09T10:00:55.766Z,102952.22
2022-08-09T10:03:58.084Z,102961.94
2022-08-09T10:06:32.145Z,102961.41
2022-08-09T10:09:02.887Z,102946.84
2022-08-09T10:12:01.376Z,102959.41
2022-08-09T10:14:27.346Z,102950.25
2022-08-09T10:17:05.392Z,102952.53
2022-08-09T10:19:45.833Z,102951.75
2022-08-09T10:22:12.928Z,102950.50
2022-08-09T10:24:40.404Z,102944.91
2022-08-09T10:27:10.343Z,102950.19
2022-08-09T10:30:43.934Z,102947.78
2022-08-09T10:32:42.453Z,102946.31
2022-08-09T10:35:10.706Z,102939.00
2022-08-09T10:37:40.184Z,102937.59
2022-08-09T10:40:12.128Z,102944.22
2022-08-09T10:43:00.512Z,102940.88
2022-08-09T10:45:31.799Z,102929.94
2022-08-09T10:48:26.132Z,102927.16
2022-08-09T10:51:09.370Z,102926.97
2022-08-09T10:53:39.532Z,102933.75
2022-08-09T10:56:22.962Z,102927.81
2022-08-09T10:58:54.642Z,102924.38
2022-08-09T11:03:14.870Z,102923.59
2022-08-09T11:04:31.645Z,102931.94
2022-08-09T11:07:00.331Z,102927.19
2022-08-09T11:09:41.427Z,102920.06
2022-08-09T11:12:29.709Z,102915.25
2022-08-09T11:14:59.046Z,102920.06
2022-08-09T11:17:26.307Z,102924.56
2022-08-09T11:20:19.750Z,102924.81
2022-08-09T11:22:55.450Z,102914.91
2022-08-09T11:25:45.260Z,102905.81
2022-08-09T11:28:38.721Z,102910.28
2022-08-09T11:31:48.794Z,102901.69
2022-08-09T11:34:31.778Z,102898.22
2022-08-09T11:36:59.808Z,102890.69
2022-08-09T11:39:26.430Z,102898.66
2022-08-09T11:42:14.541Z,102892.81
2022-08-09T11:44:44.265Z,102895.06
2022-08-09T11:47:11.110Z,102894.06
2022-08-09T11:50:55.201Z,102890.13
2022-08-09T11:53:15.610Z,102883.31
2022-08-09T11:55:53.587Z,102886.94
2022-08-09T11:58:32.258Z,102895.34
2022-08-09T12:01:37.462Z,102890.94
2022-08-09T12:04:00.713Z,102884.59
2022-08-09T12:06:32.555Z,102883.03
2022-08-09T12:09:19.745Z,102882.25
2022-08-09T12:12:04.109Z,102879.19
2022-08-09T12:14:40.486Z,102881.22
2022-08-09T12:17:28.152Z,102875.53
2022-08-09T12:20:22.190Z,102877.88
2022-08-09T12:22:56.406Z,102871.25
2022-08-09T12:25:36.540Z,102870.91
2022-08-09T12:28:59.335Z,102872.50
2022-08-09T12:30:59.001Z,102867.31
2022-08-09T12:33:35.274Z,102854.19
2022-08-09T12:36:27.674Z,102861.09
2022-08-09T12:38:59.448Z,102854.53
2022-08-09T12:41:38.102Z,102847.63
2022-08-09T12:44:10.216Z,102848.47
2022-08-09T12:46:43.336Z,102855.06
2022-08-09T12:49:16.156Z,102856.75
2022-08-09T12:52:02.066Z,102853.59
2022-08-09T12:54:29.583Z,102853.94
2022-08-09T12:56:58.915Z,102855.31
2022-08-09T12:59:39.760Z,102848.97
2022-08-09T13:02:17.558Z,102839.06
2022-08-09T13:05:00.579Z,102847.47
2022-08-09T13:07:51.049Z,102842.44
2022-08-09T13:10:16.695Z,102849.69
2022-08-09T13:13:08.917Z,102835.13
2022-08-09T13:15:35.688Z,102846.72
2022-08-09T13:18:06.078Z,102842.63
2022-08-09T13:20:37.384Z,102842.38
2022-08-09T13:24:16.560Z,102834.94
2022-08-09T13:26:03.547Z,102843.75
2022-08-09T13:28:34.531Z,102842.16
2022-08-09T13:32:13.680Z,102837.41
2022-08-09T13:33:53.683Z,102818.94
2022-08-09T13:36:37.504Z,102813.88
2022-08-09T13:41:50.365Z,102822.53
2022-08-09T13:42:04.798Z,102817.41
2022-08-09T13:44:33.429Z,102812.66
2022-08-09T13:47:28.787Z,102801.69
2022-08-09T13:49:56.105Z,102797.78
2022-08-09T13:52:24.971Z,102802.81
2022-08-09T13:54:59.454Z,102806.44
2022-08-09T13:57:37.518Z,102809.09
2022-08-09T14:00:09.195Z,102811.09
2022-08-09T14:02:42.191Z,102806.97
2022-08-09T14:05:59.172Z,102803.09
2022-08-09T14:08:10.456Z,102809.16
2022-08-09T14:10:46.180Z,102810.25
2022-08-09T14:13:27.984Z,102798.66
2022-08-09T14:16:10.467Z,102798.47
2022-08-09T14:18:43.153Z,102806.44
2022-08-09T14:21:17.489Z,102810.00
2022-08-09T14:23:53.489Z,102807.75
2022-08-09T14:26:30.043Z,102804.81
2022-08-09T14:29:07.931Z,102812.09
2022-08-09T14:31:53.998Z,102804.03
2022-08-09T14:34:27.304Z,102799.22
2022-08-09T14:36:59.077Z,102795.81
2022-08-09T14:39:46.134Z,102799.69
2022-08-09T14:42:12.288Z,102795.66
2022-08-09T14:44:48.638Z,102802.84
2022-08-09T14:47:39.697Z,102794.34
2022-08-09T14:50:02.737Z,102793.03
2022-08-09T14:52:29.428Z,102791.38
2022-08-09T14:54:56.110Z,102796.31
2022-08-09T14:57:23.315Z,102787.50
2022-08-09T14:59:58.455Z,102791.19
2022-08-09T15:02:24.987Z,102786.47
2022-08-09T15:04:51.553Z,102787.59
2022-08-09T15:07:18.174Z,102780.19
2022-08-09T15:10:03.603Z,102781.03
2022-08-09T15:12:32.441Z,102786.31
2022-08-09T15:14:59.184Z,102789.72
2022-08-09T15:17:26.163Z,102795.72
2022-08-09T15:19:59.025Z,102781.78
2022-08-09T15:22:26.491Z,102786.13
2022-08-09T15:24:53.637Z,102782.75
2022-08-09T15:27:20.955Z,102778.66
2022-08-09T15:30:55.521Z,102763.78
2022-08-09T15:32:34.378Z,102767.38
2022-08-09T15:35:01.327Z,102765.22
2022-08-09T15:37:56.116Z,102774.28
2022-08-09T15:40:31.952Z,102772.59
2022-08-09T15:43:00.475Z,102769.41
2022-08-09T15:45:29.507Z,102768.25
2022-08-09T15:48:05.531Z,102766.31
2022-08-09T15:50:39.320Z,102768.75
2022-08-09T15:53:18.782Z,102768.63
2022-08-09T15:56:21.040Z,102762.00
2022-08-09T15:58:44.528Z,102753.22
2022-08-09T16:01:13.148Z,102751.28
2022-08-09T16:03:41.480Z,102760.38
2022-08-09T16:06:32.414Z,102752.22
2022-08-09T16:08:59.160Z,102757.78
2022-08-09T16:11:30.736Z,102741.19
2022-08-09T16:14:04.835Z,102745.06
2022-08-09T16:16:37.331Z,102746.16
2022-08-09T16:19:09.944Z,102751.72
2022-08-09T16:21:40.813Z,102739.38
2022-08-09T16:24:20.031Z,102750.78
2022-08-09T16:26:56.790Z,102754.50
2022-08-09T16:29:37.956Z,102752.88
2022-08-09T16:32:34.463Z,102742.06
2022-08-09T16:34:58.313Z,102748.81
2022-08-09T16:37:53.129Z,102755.47
2022-08-09T16:40:13.689Z,102757.06
2022-08-09T16:42:45.086Z,102748.31
2022-08-09T16:45:14.578Z,102741.53
2022-08-09T16:48:41.896Z,102746.84
2022-08-09T16:50:33.814Z,102746.91
2022-08-09T16:53:02.142Z,102750.16
2022-08-09T16:55:31.524Z,102746.00
2022-08-09T16:58:16.961Z,102748.72
2022-08-09T17:00:44.046Z,102741.88
2022-08-09T17:03:21.974Z,102748.03
2022-08-09T17:06:07.686Z,102748.19
2022-08-09T17:09:00.015Z,102753.09
2022-08-09T17:11:40.937Z,102743.06
2022-08-09T17:14:26.165Z,102753.78
2022-08-09T17:16:55.944Z,102759.66
2022-08-09T17:19:22.445Z,102761.28
2022-08-09T17:21:54.471Z,102761.28
2022-08-09T17:24:30.343Z,102752.41
2022-08-09T17:26:58.266Z,102756.53
2022-08-09T17:29:31.622Z,102764.88
2022-08-09T17:32:05.586Z,102759.91
2022-08-09T17:35:07.453Z,102762.84
2022-08-09T17:37:21.160Z,102754.28
2022-08-09T17:39:52.168Z,102765.09
2022-08-09T17:42:42.181Z,102762.78
2022-08-09T17:45:15.839Z,102763.34
2022-08-09T17:47:55.491Z,102766.19
2022-08-09T17:50:37.289Z,102774.94
2022-08-09T17:53:19.703Z,102764.97
2022-08-09T17:55:51.938Z,102762.06
2022-08-09T17:58:21.998Z,102761.06
2022-08-09T18:00:54.999Z,102759.22
2022-08-09T18:03:24.103Z,102767.22
2022-08-09T18:05:54.084Z,102761.19
2022-08-09T18:08:22.157Z,102767.94
2022-08-09T18:11:00.881Z,102766.53
2022-08-09T18:13:54.436Z,102760.09
2022-08-09T18:16:30.205Z,102772.97
2022-08-09T18:19:03.856Z,102769.69
2022-08-09T18:21:41.437Z,102769.38
2022-08-09T18:24:14.601Z,102781.34
2022-08-09T18:26:46.955Z,102769.22
2022-08-09T18:30:39.810Z,102780.03
2022-08-09T18:32:04.071Z,102774.75
2022-08-09T18:34:35.198Z,102774.75
2022-08-09T18:37:03.915Z,102769.78
2022-08-09T18:39:32.496Z,102776.22
2022-08-09T18:42:08.909Z,102770.25
2022-08-09T18:44:37.084Z,102773.59
2022-08-09T18:47:09.849Z,102767.97
2022-08-09T18:49:46.595Z,102764.94
2022-08-09T18:52:16.036Z,102777.75
2022-08-09T18:54:49.828Z,102768.91
2022-08-09T18:57:22.395Z,102772.22
2022-08-09T18:59:57.834Z,102776.84
2022-08-09T19:02:31.739Z,102765.75
2022-08-09T19:05:14.630Z,102760.72
2022-08-09T19:08:04.769Z,102768.78
2022-08-09T19:10:37.387Z,102781.38
2022-08-09T19:13:19.262Z,102790.19
2022-08-09T19:15:50.123Z,102791.56
2022-08-09T19:18:34.292Z,102790.25
2022-08-09T19:21:09.498Z,102792.50
2022-08-09T19:24:32.712Z,102798.25
2022-08-09T19:26:34.832Z,102789.75
2022-08-09T19:29:09.667Z,102793.31
2022-08-09T19:31:45.336Z,102796.38
2022-08-09T19:34:21.839Z,102792.53
2022-08-09T19:36:51.053Z,102794.91
2022-08-09T19:39:17.857Z,102793.97
2022-08-09T19:41:50.592Z,102788.84
2022-08-09T19:44:22.279Z,102795.97
2022-08-09T19:46:53.488Z,102796.19
2022-08-09T19:50:06.765Z,102786.25
2022-08-09T19:52:08.609Z,102797.78
2022-08-09T19:54:35.385Z,102799.09
2022-08-09T19:57:02.771Z,102808.50
2022-08-09T19:59:58.343Z,102818.97
2022-08-09T20:04:11.549Z,102816.84
2022-08-09T20:05:11.545Z,102806.44
2022-08-09T20:07:59.644Z,102814.50
2022-08-09T20:10:36.528Z,102818.38
2022-08-09T20:13:06.188Z,102826.97
2022-08-09T20:16:38.603Z,102823.31
2022-08-09T20:18:22.122Z,102823.94
2022-08-09T20:20:50.538Z,102827.50
2022-08-09T20:23:21.009Z,102828.69
2022-08-09T20:25:52.981Z,102827.38
2022-08-09T20:28:27.699Z,102828.41
2022-08-09T20:31:00.778Z,102833.16
2022-08-09T20:33:29.534Z,102836.69
2022-08-09T20:36:08.460Z,102838.03
2022-08-09T20:39:02.591Z,102841.19
2022-08-09T20:41:32.005Z,102845.81
2022-08-09T20:44:03.506Z,102837.47
2022-08-09T20:46:42.815Z,102838.19
2022-08-09T20:49:12.406Z,102838.19
2022-08-09T20:51:41.610Z,102840.09
2022-08-09T20:54:12.824Z,102847.38
2022-08-09T20:56:43.760Z,102847.53
2022-08-09T20:59:14.119Z,102845.63
2022-08-09T21:01:50.871Z,102843.06
2022-08-09T21:05:53.592Z,102848.06
2022-08-09T21:07:12.254Z,102846.13
2022-08-09T21:09:45.890Z,102840.06
2022-08-09T21:12:23.095Z,102852.59
2022-08-09T21:14:49.743Z,102842.00
2022-08-09T21:18:11.431Z,102847.66
2022-08-09T21:20:18.109Z,102853.00
2022-08-09T21:22:52.660Z,102847.69
2022-08-09T21:25:39.530Z,102852.25
2022-08-09T21:28:11.784Z,102848.47
2022-08-09T21:30:40.752Z,102847.69
2022-08-09T21:33:08.601Z,102856.06
2022-08-09T21:35:40.904Z,102853.00
2022-08-09T21:38:30.859Z,102848.06
2022-08-09T21:40:58.361Z,102851.44
2022-08-09T21:43:56.148Z,102846.50
2022-08-09T21:46:12.409Z,102848.22
2022-08-09T21:48:42.622Z,102845.22
2022-08-09T21:51:14.243Z,102849.44
2022-08-09T21:53:54.735Z,102839.59
2022-08-09T21:56:42.786Z,102835.38
2022-08-09T21:59:09.330Z,102839.84
2022-08-09T22:01:58.710Z,102838.16
2022-08-09T22:04:33.575Z,102839.72
2022-08-09T22:07:10.389Z,102831.78
2022-08-09T22:09:40.872Z,102833.63
2022-08-09T22:12:18.112Z,102834.38
2022-08-09T22:14:46.017Z,102841.91
2022-08-09T22:17:13.051Z,102844.91
2022-08-09T22:19:58.634Z,102843.53
2022-08-09T22:22:26.941Z,102844.75
2022-08-09T22:26:05.420Z,102846.94
2022-08-09T22:27:40.502Z,102841.25
2022-08-09T22:30:09.464Z,102840.78
2022-08-09T22:32:36.204Z,102836.59
2022-08-09T22:35:06.140Z,102844.63
2022-08-09T22:37:40.070Z,102833.00
2022-08-09T22:40:08.625Z,102842.41
2022-08-09T22:42:35.216Z,102838.00
2022-08-09T22:48:12.975Z,102841.75
2022-08-09T22:48:13.937Z,102841.72
2022-08-09T22:50:35.296Z,102840.09
2022-08-09T22:53:03.565Z,102833.66
2022-08-09T22:56:06.524Z,102834.50
2022-08-09T22:58:20.412Z,102832.84
2022-08-09T23:00:59.136Z,102831.56
2022-08-09T23:04:02.862Z,102833.28
2022-08-09T23:06:14.172Z,102832.13
2022-08-09T23:08:44.407Z,102830.19
2022-08-09T23:11:16.007Z,102829.97
2022-08-09T23:13:46.834Z,102839.88
2022-08-09T23:16:14.907Z,102843.28
2022-08-09T23:18:42.399Z,102841.84
2022-08-09T23:21:09.994Z,102843.13
2022-08-09T23:23:37.021Z,102849.53
2022-08-09T23:26:05.686Z,102850.00
2022-08-09T23:28:32.200Z,102840.19
2022-08-09T23:30:58.703Z,102846.44
2022-08-09T23:33:26.844Z,102844.59
2022-08-09T23:36:05.874Z,102845.91
2022-08-09T23:38:35.929Z,102838.56
2022-08-09T23:41:29.103Z,102839.31
2022-08-09T23:43:57.447Z,102836.28
2022-08-09T23:46:23.969Z,102836.28
2022-08-09T23:48:50.740Z,102833.19
2022-08-09T23:51:17.648Z,102830.47
2022-08-09T23:53:45.503Z,102834.63
2022-08-09T23:56:13.855Z,102829.88
2022-08-09T23:58:40.364Z,102827.44
